sensor_id;sensor_type;location;lat;lon;timestamp;temperature;humidity
21184;DHT22;18176;49.502;11.754;2023-02-04T00:03:24;4.40;99.90
21184;DHT22;18176;49.502;11.754;2023-02-04T00:07:25;4.50;99.90
21184;DHT22;18176;49.502;11.754;2023-02-04T00:11:28;4.50;99.90
21184;DHT22;18176;49.502;11.754;2023-02-04T00:15:30;4.50;99.90
21184;DHT22;18176;49.502;11.754;2023-02-04T00:19:36;4.50;99.90
21184;DHT22;18176;49.502;11.754;2023-02-04T00:23:40;4.50;99.90
21184;DHT22;18176;49.502;11.754;2023-02-04T00:27:49;4.50;99.90
21184;DHT22;18176;49.502;11.754;2023-02-04T00:31:50;4.50;99.90
21184;DHT22;18176;49.502;11.754;2023-02-04T00:36:00;4.40;99.90
21184;DHT22;18176;49.502;11.754;2023-02-04T00:40:01;4.40;99.90
21184;DHT22;18176;49.502;11.754;2023-02-04T00:44:03;4.50;99.90
21184;DHT22;18176;49.502;11.754;2023-02-04T00:48:04;4.40;99.90
21184;DHT22;18176;49.502;11.754;2023-02-04T00:52:09;4.40;99.90
21184;DHT22;18176;49.502;11.754;2023-02-04T00:56:11;4.40;99.90
21184;DHT22;18176;49.502;11.754;2023-02-04T01:00:13;4.40;99.90
21184;DHT22;18176;49.502;11.754;2023-02-04T01:04:20;4.30;99.90
21184;DHT22;18176;49.502;11.754;2023-02-04T01:08:30;4.30;99.90
21184;DHT22;18176;49.502;11.754;2023-02-04T01:12:34;4.30;99.90
21184;DHT22;18176;49.502;11.754;2023-02-04T01:16:37;4.20;99.90
21184;DHT22;18176;49.502;11.754;2023-02-04T01:20:39;4.30;99.90
21184;DHT22;18176;49.502;11.754;2023-02-04T01:24:47;4.30;99.90
21184;DHT22;18176;49.502;11.754;2023-02-04T01:29:08;4.30;99.90
21184;DHT22;18176;49.502;11.754;2023-02-04T01:33:09;4.30;99.90
21184;DHT22;18176;49.502;11.754;2023-02-04T01:37:17;4.30;99.90
21184;DHT22;18176;49.502;11.754;2023-02-04T01:41:37;4.30;99.90
21184;DHT22;18176;49.502;11.754;2023-02-04T01:45:39;4.30;99.90
21184;DHT22;18176;49.502;11.754;2023-02-04T01:49:49;4.30;99.90
21184;DHT22;18176;49.502;11.754;2023-02-04T01:53:52;4.30;99.90
21184;DHT22;18176;49.502;11.754;2023-02-04T01:57:56;4.30;99.90
21184;DHT22;18176;49.502;11.754;2023-02-04T02:01:59;4.30;99.90
21184;DHT22;18176;49.502;11.754;2023-02-04T02:06:02;4.30;99.90
21184;DHT22;18176;49.502;11.754;2023-02-04T02:10:07;4.30;99.90
21184;DHT22;18176;49.502;11.754;2023-02-04T02:14:13;4.30;99.90
21184;DHT22;18176;49.502;11.754;2023-02-04T02:18:19;4.20;99.90
21184;DHT22;18176;49.502;11.754;2023-02-04T02:22:27;4.30;99.90
21184;DHT22;18176;49.502;11.754;2023-02-04T02:26:37;4.20;99.90
21184;DHT22;18176;49.502;11.754;2023-02-04T02:30:40;4.20;99.90
21184;DHT22;18176;49.502;11.754;2023-02-04T02:34:47;4.30;99.90
21184;DHT22;18176;49.502;11.754;2023-02-04T02:38:48;4.30;99.90
21184;DHT22;18176;49.502;11.754;2023-02-04T02:42:53;4.30;99.90
21184;DHT22;18176;49.502;11.754;2023-02-04T02:46:54;4.20;99.90
21184;DHT22;18176;49.502;11.754;2023-02-04T02:50:55;4.20;99.90
21184;DHT22;18176;49.502;11.754;2023-02-04T02:54:56;4.10;99.90
21184;DHT22;18176;49.502;11.754;2023-02-04T02:59:15;4.10;99.90
21184;DHT22;18176;49.502;11.754;2023-02-04T03:03:24;4.00;99.90
21184;DHT22;18176;49.502;11.754;2023-02-04T03:07:27;4.00;99.90
21184;DHT22;18176;49.502;11.754;2023-02-04T03:11:27;3.90;99.90
21184;DHT22;18176;49.502;11.754;2023-02-04T03:15:33;3.80;99.90
21184;DHT22;18176;49.502;11.754;2023-02-04T03:19:36;3.70;99.90
21184;DHT22;18176;49.502;11.754;2023-02-04T03:23:39;3.70;99.90
21184;DHT22;18176;49.502;11.754;2023-02-04T03:27:42;3.70;99.90
21184;DHT22;18176;49.502;11.754;2023-02-04T03:31:47;3.70;99.90
21184;DHT22;18176;49.502;11.754;2023-02-04T03:35:51;3.70;99.90
21184;DHT22;18176;49.502;11.754;2023-02-04T03:39:51;3.70;99.90
21184;DHT22;18176;49.502;11.754;2023-02-04T03:43:55;3.60;99.90
21184;DHT22;18176;49.502;11.754;2023-02-04T03:48:00;3.70;99.90
21184;DHT22;18176;49.502;11.754;2023-02-04T03:52:00;3.80;99.90
21184;DHT22;18176;49.502;11.754;2023-02-04T03:56:05;3.80;99.90
21184;DHT22;18176;49.502;11.754;2023-02-04T04:00:08;3.90;99.90
21184;DHT22;18176;49.502;11.754;2023-02-04T04:04:12;3.90;99.90
21184;DHT22;18176;49.502;11.754;2023-02-04T04:08:13;3.90;99.90
21184;DHT22;18176;49.502;11.754;2023-02-04T04:12:14;3.90;99.90
21184;DHT22;18176;49.502;11.754;2023-02-04T04:16:16;4.00;99.90
21184;DHT22;18176;49.502;11.754;2023-02-04T04:20:19;4.00;99.90
21184;DHT22;18176;49.502;11.754;2023-02-04T04:24:21;4.00;99.90
21184;DHT22;18176;49.502;11.754;2023-02-04T04:28:23;4.00;99.90
21184;DHT22;18176;49.502;11.754;2023-02-04T04:32:24;3.90;99.90
21184;DHT22;18176;49.502;11.754;2023-02-04T04:36:27;3.80;99.90
21184;DHT22;18176;49.502;11.754;2023-02-04T04:40:28;3.80;99.90
21184;DHT22;18176;49.502;11.754;2023-02-04T04:44:30;3.80;99.90
21184;DHT22;18176;49.502;11.754;2023-02-04T04:48:31;3.90;99.90
21184;DHT22;18176;49.502;11.754;2023-02-04T04:52:35;3.90;99.90
21184;DHT22;18176;49.502;11.754;2023-02-04T04:56:37;3.60;99.90
21184;DHT22;18176;49.502;11.754;2023-02-04T05:00:38;2.60;99.90
21184;DHT22;18176;49.502;11.754;2023-02-04T05:04:39;2.00;99.90
21184;DHT22;18176;49.502;11.754;2023-02-04T05:08:46;1.70;99.90
21184;DHT22;18176;49.502;11.754;2023-02-04T05:12:47;1.70;99.90
21184;DHT22;18176;49.502;11.754;2023-02-04T05:16:50;1.70;99.90
21184;DHT22;18176;49.502;11.754;2023-02-04T05:20:53;1.70;99.90
21184;DHT22;18176;49.502;11.754;2023-02-04T05:24:56;1.60;99.90
21184;DHT22;18176;49.502;11.754;2023-02-04T05:29:03;1.60;99.90
21184;DHT22;18176;49.502;11.754;2023-02-04T05:33:06;1.60;99.90
21184;DHT22;18176;49.502;11.754;2023-02-04T05:37:08;1.60;99.90
21184;DHT22;18176;49.502;11.754;2023-02-04T05:41:14;1.60;99.90
21184;DHT22;18176;49.502;11.754;2023-02-04T05:45:15;1.70;99.90
21184;DHT22;18176;49.502;11.754;2023-02-04T05:49:19;1.60;99.90
21184;DHT22;18176;49.502;11.754;2023-02-04T05:53:21;1.60;99.90
21184;DHT22;18176;49.502;11.754;2023-02-04T05:57:25;1.60;99.90
21184;DHT22;18176;49.502;11.754;2023-02-04T06:01:27;1.60;99.90
21184;DHT22;18176;49.502;11.754;2023-02-04T06:05:31;1.60;99.90
21184;DHT22;18176;49.502;11.754;2023-02-04T06:09:33;1.60;99.90
21184;DHT22;18176;49.502;11.754;2023-02-04T06:13:37;1.60;99.90
21184;DHT22;18176;49.502;11.754;2023-02-04T06:17:39;1.60;99.90
21184;DHT22;18176;49.502;11.754;2023-02-04T06:21:40;1.60;99.90
21184;DHT22;18176;49.502;11.754;2023-02-04T06:25:40;1.50;99.90
21184;DHT22;18176;49.502;11.754;2023-02-04T06:29:44;1.50;99.90
21184;DHT22;18176;49.502;11.754;2023-02-04T06:33:46;1.50;99.90
21184;DHT22;18176;49.502;11.754;2023-02-04T06:37:47;1.50;99.90
21184;DHT22;18176;49.502;11.754;2023-02-04T06:41:51;1.50;99.90
21184;DHT22;18176;49.502;11.754;2023-02-04T06:45:55;1.50;99.90
21184;DHT22;18176;49.502;11.754;2023-02-04T06:49:57;1.40;99.90
21184;DHT22;18176;49.502;11.754;2023-02-04T06:53:58;1.30;99.90
21184;DHT22;18176;49.502;11.754;2023-02-04T06:57:59;1.30;99.90
21184;DHT22;18176;49.502;11.754;2023-02-04T07:02:03;1.30;99.90
21184;DHT22;18176;49.502;11.754;2023-02-04T07:06:06;1.20;99.90
21184;DHT22;18176;49.502;11.754;2023-02-04T07:10:07;1.20;99.90
21184;DHT22;18176;49.502;11.754;2023-02-04T07:14:11;1.30;99.90
21184;DHT22;18176;49.502;11.754;2023-02-04T07:18:14;1.20;99.90
21184;DHT22;18176;49.502;11.754;2023-02-04T07:22:16;1.20;99.90
21184;DHT22;18176;49.502;11.754;2023-02-04T07:26:17;1.20;99.90
21184;DHT22;18176;49.502;11.754;2023-02-04T07:30:20;1.10;99.90
21184;DHT22;18176;49.502;11.754;2023-02-04T07:34:23;1.20;99.90
21184;DHT22;18176;49.502;11.754;2023-02-04T07:38:24;1.20;99.90
21184;DHT22;18176;49.502;11.754;2023-02-04T07:42:26;1.30;99.90
21184;DHT22;18176;49.502;11.754;2023-02-04T07:46:38;1.40;99.90
21184;DHT22;18176;49.502;11.754;2023-02-04T07:50:42;1.40;99.90
21184;DHT22;18176;49.502;11.754;2023-02-04T07:54:45;1.50;99.90
21184;DHT22;18176;49.502;11.754;2023-02-04T07:58:47;1.60;99.90
21184;DHT22;18176;49.502;11.754;2023-02-04T08:02:50;1.70;99.90
21184;DHT22;18176;49.502;11.754;2023-02-04T08:06:56;1.70;99.90
21184;DHT22;18176;49.502;11.754;2023-02-04T08:11:03;1.90;99.90
21184;DHT22;18176;49.502;11.754;2023-02-04T08:15:05;1.90;99.90
21184;DHT22;18176;49.502;11.754;2023-02-04T08:19:09;1.90;99.90
21184;DHT22;18176;49.502;11.754;2023-02-04T08:23:17;2.10;99.90
21184;DHT22;18176;49.502;11.754;2023-02-04T08:27:19;2.20;99.90
21184;DHT22;18176;49.502;11.754;2023-02-04T08:31:19;2.40;99.90
21184;DHT22;18176;49.502;11.754;2023-02-04T08:35:20;2.60;99.90
21184;DHT22;18176;49.502;11.754;2023-02-04T08:39:24;2.70;99.90
21184;DHT22;18176;49.502;11.754;2023-02-04T08:43:25;2.80;99.90
21184;DHT22;18176;49.502;11.754;2023-02-04T08:47:29;3.00;99.90
21184;DHT22;18176;49.502;11.754;2023-02-04T08:51:32;3.10;99.90
21184;DHT22;18176;49.502;11.754;2023-02-04T08:55:36;3.30;99.90
21184;DHT22;18176;49.502;11.754;2023-02-04T08:59:36;4.00;99.90
21184;DHT22;18176;49.502;11.754;2023-02-04T09:03:37;4.60;99.90
21184;DHT22;18176;49.502;11.754;2023-02-04T09:07:42;5.00;99.90
21184;DHT22;18176;49.502;11.754;2023-02-04T09:11:47;5.00;99.90
21184;DHT22;18176;49.502;11.754;2023-02-04T09:15:50;4.90;99.90
21184;DHT22;18176;49.502;11.754;2023-02-04T09:19:52;5.30;99.90
21184;DHT22;18176;49.502;11.754;2023-02-04T09:23:58;5.60;99.90
21184;DHT22;18176;49.502;11.754;2023-02-04T09:28:03;5.30;99.90
21184;DHT22;18176;49.502;11.754;2023-02-04T09:32:09;5.30;99.90
21184;DHT22;18176;49.502;11.754;2023-02-04T09:36:13;5.00;99.90
21184;DHT22;18176;49.502;11.754;2023-02-04T09:40:16;4.60;99.90
21184;DHT22;18176;49.502;11.754;2023-02-04T09:44:23;5.00;99.90
21184;DHT22;18176;49.502;11.754;2023-02-04T09:48:26;5.00;99.90
21184;DHT22;18176;49.502;11.754;2023-02-04T09:52:27;5.00;99.90
21184;DHT22;18176;49.502;11.754;2023-02-04T09:56:30;5.20;99.90
21184;DHT22;18176;49.502;11.754;2023-02-04T10:00:38;5.80;99.90
21184;DHT22;18176;49.502;11.754;2023-02-04T10:04:39;5.80;99.90
21184;DHT22;18176;49.502;11.754;2023-02-04T10:08:41;5.50;99.90
21184;DHT22;18176;49.502;11.754;2023-02-04T10:12:50;5.40;99.90
21184;DHT22;18176;49.502;11.754;2023-02-04T10:16:59;5.10;99.90
21184;DHT22;18176;49.502;11.754;2023-02-04T10:21:14;4.80;99.90
21184;DHT22;18176;49.502;11.754;2023-02-04T10:25:19;4.50;99.90
21184;DHT22;18176;49.502;11.754;2023-02-04T10:29:23;4.40;99.90
21184;DHT22;18176;49.502;11.754;2023-02-04T10:33:26;4.40;99.90
21184;DHT22;18176;49.502;11.754;2023-02-04T10:37:28;4.50;99.90
21184;DHT22;18176;49.502;11.754;2023-02-04T10:41:29;4.80;99.90
21184;DHT22;18176;49.502;11.754;2023-02-04T10:45:34;5.10;99.90
21184;DHT22;18176;49.502;11.754;2023-02-04T10:49:38;5.50;99.90
21184;DHT22;18176;49.502;11.754;2023-02-04T10:53:39;5.70;99.90
21184;DHT22;18176;49.502;11.754;2023-02-04T10:57:52;5.70;99.90
21184;DHT22;18176;49.502;11.754;2023-02-04T11:02:00;5.40;99.90
21184;DHT22;18176;49.502;11.754;2023-02-04T11:06:20;5.20;99.90
21184;DHT22;18176;49.502;11.754;2023-02-04T11:10:28;5.10;99.90
21184;DHT22;18176;49.502;11.754;2023-02-04T11:14:31;4.90;99.90
21184;DHT22;18176;49.502;11.754;2023-02-04T11:18:43;4.80;99.90
21184;DHT22;18176;49.502;11.754;2023-02-04T11:22:49;4.90;99.90
21184;DHT22;18176;49.502;11.754;2023-02-04T11:26:52;5.20;99.90
21184;DHT22;18176;49.502;11.754;2023-02-04T11:31:24;5.90;99.90
21184;DHT22;18176;49.502;11.754;2023-02-04T11:35:28;6.40;99.90
21184;DHT22;18176;49.502;11.754;2023-02-04T11:39:36;6.60;99.90
21184;DHT22;18176;49.502;11.754;2023-02-04T11:43:38;6.20;99.90
21184;DHT22;18176;49.502;11.754;2023-02-04T11:47:39;5.60;99.90
21184;DHT22;18176;49.502;11.754;2023-02-04T11:51:42;5.10;99.90
21184;DHT22;18176;49.502;11.754;2023-02-04T11:55:46;5.20;99.90
21184;DHT22;18176;49.502;11.754;2023-02-04T11:59:47;6.90;99.90
21184;DHT22;18176;49.502;11.754;2023-02-04T12:03:55;9.00;99.90
21184;DHT22;18176;49.502;11.754;2023-02-04T12:08:10;10.00;99.90
21184;DHT22;18176;49.502;11.754;2023-02-04T12:12:22;9.00;99.90
21184;DHT22;18176;49.502;11.754;2023-02-04T12:16:25;7.70;99.90
21184;DHT22;18176;49.502;11.754;2023-02-04T12:20:26;6.70;99.90
21184;DHT22;18176;49.502;11.754;2023-02-04T12:24:27;5.80;99.90
21184;DHT22;18176;49.502;11.754;2023-02-04T12:28:30;5.40;99.90
21184;DHT22;18176;49.502;11.754;2023-02-04T12:32:32;5.10;99.90
21184;DHT22;18176;49.502;11.754;2023-02-04T12:36:34;5.20;99.90
21184;DHT22;18176;49.502;11.754;2023-02-04T12:40:36;5.70;99.90
21184;DHT22;18176;49.502;11.754;2023-02-04T12:44:42;6.60;99.90
21184;DHT22;18176;49.502;11.754;2023-02-04T12:48:43;7.80;99.90
21184;DHT22;18176;49.502;11.754;2023-02-04T12:52:48;8.60;99.90
21184;DHT22;18176;49.502;11.754;2023-02-04T12:56:49;7.90;99.90
21184;DHT22;18176;49.502;11.754;2023-02-04T13:00:56;6.80;99.90
21184;DHT22;18176;49.502;11.754;2023-02-04T13:05:00;5.80;99.90
21184;DHT22;18176;49.502;11.754;2023-02-04T13:09:01;5.30;99.90
21184;DHT22;18176;49.502;11.754;2023-02-04T13:13:03;5.20;99.90
21184;DHT22;18176;49.502;11.754;2023-02-04T13:17:06;5.40;99.90
21184;DHT22;18176;49.502;11.754;2023-02-04T13:21:08;7.30;99.90
21184;DHT22;18176;49.502;11.754;2023-02-04T13:25:09;9.60;99.90
21184;DHT22;18176;49.502;11.754;2023-02-04T13:29:13;12.10;99.00
21184;DHT22;18176;49.502;11.754;2023-02-04T13:33:16;13.40;90.70
21184;DHT22;18176;49.502;11.754;2023-02-04T13:37:19;13.80;86.50
21184;DHT22;18176;49.502;11.754;2023-02-04T13:41:19;13.70;82.10
21184;DHT22;18176;49.502;11.754;2023-02-04T13:45:21;13.40;83.00
21184;DHT22;18176;49.502;11.754;2023-02-04T13:49:24;14.00;81.90
21184;DHT22;18176;49.502;11.754;2023-02-04T13:53:26;12.90;83.00
21184;DHT22;18176;49.502;11.754;2023-02-04T13:57:28;12.00;86.50
21184;DHT22;18176;49.502;11.754;2023-02-04T14:01:29;10.40;90.40
21184;DHT22;18176;49.502;11.754;2023-02-04T14:05:33;9.10;92.20
21184;DHT22;18176;49.502;11.754;2023-02-04T14:09:36;7.70;95.40
21184;DHT22;18176;49.502;11.754;2023-02-04T14:13:37;6.90;98.10
21184;DHT22;18176;49.502;11.754;2023-02-04T14:17:39;6.20;99.70
21184;DHT22;18176;49.502;11.754;2023-02-04T14:21:43;5.70;99.90
21184;DHT22;18176;49.502;11.754;2023-02-04T14:25:46;5.40;99.90
21184;DHT22;18176;49.502;11.754;2023-02-04T14:29:46;5.20;99.90
21184;DHT22;18176;49.502;11.754;2023-02-04T14:33:47;5.20;99.90
21184;DHT22;18176;49.502;11.754;2023-02-04T14:37:51;5.20;99.90
21184;DHT22;18176;49.502;11.754;2023-02-04T14:41:51;5.40;99.90
21184;DHT22;18176;49.502;11.754;2023-02-04T14:45:52;5.50;99.90
21184;DHT22;18176;49.502;11.754;2023-02-04T14:49:56;6.10;99.90
21184;DHT22;18176;49.502;11.754;2023-02-04T14:53:59;7.50;99.90
21184;DHT22;18176;49.502;11.754;2023-02-04T14:57:59;8.70;98.90
21184;DHT22;18176;49.502;11.754;2023-02-04T15:02:02;9.30;96.50
21184;DHT22;18176;49.502;11.754;2023-02-04T15:06:07;9.10;94.40
21184;DHT22;18176;49.502;11.754;2023-02-04T15:10:13;9.10;95.10
21184;DHT22;18176;49.502;11.754;2023-02-04T15:14:14;9.10;95.40
21184;DHT22;18176;49.502;11.754;2023-02-04T15:18:15;9.00;95.70
21184;DHT22;18176;49.502;11.754;2023-02-04T15:22:16;8.30;96.20
21184;DHT22;18176;49.502;11.754;2023-02-04T15:26:19;7.30;97.60
21184;DHT22;18176;49.502;11.754;2023-02-04T15:30:21;6.70;99.20
21184;DHT22;18176;49.502;11.754;2023-02-04T15:34:22;6.00;99.90
21184;DHT22;18176;49.502;11.754;2023-02-04T15:38:23;5.60;99.90
21184;DHT22;18176;49.502;11.754;2023-02-04T15:42:27;5.20;99.90
21184;DHT22;18176;49.502;11.754;2023-02-04T15:46:29;5.00;99.90
21184;DHT22;18176;49.502;11.754;2023-02-04T15:50:31;4.90;99.90
21184;DHT22;18176;49.502;11.754;2023-02-04T15:54:34;5.50;99.90
21184;DHT22;18176;49.502;11.754;2023-02-04T15:58:38;5.80;99.90
21184;DHT22;18176;49.502;11.754;2023-02-04T16:02:39;5.80;99.90
21184;DHT22;18176;49.502;11.754;2023-02-04T16:06:45;5.20;99.90
21184;DHT22;18176;49.502;11.754;2023-02-04T16:10:54;4.50;99.90
21184;DHT22;18176;49.502;11.754;2023-02-04T16:14:58;3.90;99.90
21184;DHT22;18176;49.502;11.754;2023-02-04T16:18:59;3.50;99.90
21184;DHT22;18176;49.502;11.754;2023-02-04T16:22:59;3.00;99.90
21184;DHT22;18176;49.502;11.754;2023-02-04T16:27:00;2.80;99.90
21184;DHT22;18176;49.502;11.754;2023-02-04T16:31:03;2.50;99.90
21184;DHT22;18176;49.502;11.754;2023-02-04T16:35:06;2.30;99.90
21184;DHT22;18176;49.502;11.754;2023-02-04T16:39:09;2.10;99.90
21184;DHT22;18176;49.502;11.754;2023-02-04T16:43:10;1.90;99.90
21184;DHT22;18176;49.502;11.754;2023-02-04T16:47:13;1.70;99.90
21184;DHT22;18176;49.502;11.754;2023-02-04T16:51:15;1.60;99.90
21184;DHT22;18176;49.502;11.754;2023-02-04T16:55:16;1.50;99.90
21184;DHT22;18176;49.502;11.754;2023-02-04T16:59:17;1.40;99.90
21184;DHT22;18176;49.502;11.754;2023-02-04T17:03:20;1.30;99.90
21184;DHT22;18176;49.502;11.754;2023-02-04T17:07:21;1.30;99.90
21184;DHT22;18176;49.502;11.754;2023-02-04T17:11:22;1.30;99.90
21184;DHT22;18176;49.502;11.754;2023-02-04T17:15:29;1.30;99.90
21184;DHT22;18176;49.502;11.754;2023-02-04T17:19:35;1.20;99.90
21184;DHT22;18176;49.502;11.754;2023-02-04T17:23:43;1.20;99.90
21184;DHT22;18176;49.502;11.754;2023-02-04T17:27:44;1.00;99.90
21184;DHT22;18176;49.502;11.754;2023-02-04T17:31:46;0.90;99.90
21184;DHT22;18176;49.502;11.754;2023-02-04T17:35:51;0.80;99.90
21184;DHT22;18176;49.502;11.754;2023-02-04T17:39:52;0.60;99.90
21184;DHT22;18176;49.502;11.754;2023-02-04T17:43:53;0.50;99.90
21184;DHT22;18176;49.502;11.754;2023-02-04T17:47:55;0.30;99.90
21184;DHT22;18176;49.502;11.754;2023-02-04T17:51:59;0.20;99.90
21184;DHT22;18176;49.502;11.754;2023-02-04T17:56:00;0.00;99.90
21184;DHT22;18176;49.502;11.754;2023-02-04T18:00:09;-0.10;99.90
21184;DHT22;18176;49.502;11.754;2023-02-04T18:04:13;-0.30;99.90
21184;DHT22;18176;49.502;11.754;2023-02-04T18:08:19;-0.40;99.90
21184;DHT22;18176;49.502;11.754;2023-02-04T18:12:23;-0.50;99.90
21184;DHT22;18176;49.502;11.754;2023-02-04T18:16:26;-0.60;99.90
21184;DHT22;18176;49.502;11.754;2023-02-04T18:20:32;-0.70;99.90
21184;DHT22;18176;49.502;11.754;2023-02-04T18:24:37;-0.80;99.90
21184;DHT22;18176;49.502;11.754;2023-02-04T18:28:43;-0.90;99.90
21184;DHT22;18176;49.502;11.754;2023-02-04T18:32:47;-1.00;99.90
21184;DHT22;18176;49.502;11.754;2023-02-04T18:36:50;-1.10;99.90
21184;DHT22;18176;49.502;11.754;2023-02-04T18:41:01;-1.10;99.90
21184;DHT22;18176;49.502;11.754;2023-02-04T18:45:21;-1.20;99.90
21184;DHT22;18176;49.502;11.754;2023-02-04T18:49:26;-1.30;99.90
21184;DHT22;18176;49.502;11.754;2023-02-04T18:53:34;-1.30;99.90
21184;DHT22;18176;49.502;11.754;2023-02-04T18:57:42;-1.40;99.90
21184;DHT22;18176;49.502;11.754;2023-02-04T19:01:44;-1.50;99.90
21184;DHT22;18176;49.502;11.754;2023-02-04T19:05:48;-1.60;99.90
21184;DHT22;18176;49.502;11.754;2023-02-04T19:09:49;-1.60;99.90
21184;DHT22;18176;49.502;11.754;2023-02-04T19:13:56;-1.60;99.90
21184;DHT22;18176;49.502;11.754;2023-02-04T19:18:14;-1.70;99.90
21184;DHT22;18176;49.502;11.754;2023-02-04T19:22:27;-1.60;99.90
21184;DHT22;18176;49.502;11.754;2023-02-04T19:26:41;-1.60;99.90
21184;DHT22;18176;49.502;11.754;2023-02-04T19:30:58;-1.70;99.90
21184;DHT22;18176;49.502;11.754;2023-02-04T19:35:15;-1.80;99.90
21184;DHT22;18176;49.502;11.754;2023-02-04T19:39:27;-1.90;99.90
21184;DHT22;18176;49.502;11.754;2023-02-04T19:43:36;-2.00;99.90
21184;DHT22;18176;49.502;11.754;2023-02-04T19:47:47;-2.00;99.90
21184;DHT22;18176;49.502;11.754;2023-02-04T19:51:56;-2.10;99.90
21184;DHT22;18176;49.502;11.754;2023-02-04T19:55:58;-2.10;99.90
21184;DHT22;18176;49.502;11.754;2023-02-04T20:00:00;-2.20;99.90
21184;DHT22;18176;49.502;11.754;2023-02-04T20:04:13;-2.20;99.90
21184;DHT22;18176;49.502;11.754;2023-02-04T20:08:45;-2.20;99.90
21184;DHT22;18176;49.502;11.754;2023-02-04T20:12:51;-2.30;99.90
21184;DHT22;18176;49.502;11.754;2023-02-04T20:16:59;-2.30;99.90
21184;DHT22;18176;49.502;11.754;2023-02-04T20:21:13;-2.40;99.90
21184;DHT22;18176;49.502;11.754;2023-02-04T20:25:39;-2.50;99.90
21184;DHT22;18176;49.502;11.754;2023-02-04T20:29:48;-2.50;99.90
21184;DHT22;18176;49.502;11.754;2023-02-04T20:33:58;-2.50;99.90
21184;DHT22;18176;49.502;11.754;2023-02-04T20:38:12;-2.60;99.90
21184;DHT22;18176;49.502;11.754;2023-02-04T20:42:35;-2.60;99.90
21184;DHT22;18176;49.502;11.754;2023-02-04T20:46:46;-2.70;99.90
21184;DHT22;18176;49.502;11.754;2023-02-04T20:50:50;-2.70;99.90
21184;DHT22;18176;49.502;11.754;2023-02-04T20:54:59;-2.70;99.90
21184;DHT22;18176;49.502;11.754;2023-02-04T20:59:26;-2.70;99.90
21184;DHT22;18176;49.502;11.754;2023-02-04T21:03:37;-2.70;99.90
21184;DHT22;18176;49.502;11.754;2023-02-04T21:07:43;-2.70;99.90
21184;DHT22;18176;49.502;11.754;2023-02-04T21:11:48;-2.70;99.90
21184;DHT22;18176;49.502;11.754;2023-02-04T21:15:52;-2.80;99.90
21184;DHT22;18176;49.502;11.754;2023-02-04T21:19:58;-2.80;99.90
21184;DHT22;18176;49.502;11.754;2023-02-04T21:24:01;-2.90;99.90
21184;DHT22;18176;49.502;11.754;2023-02-04T21:28:13;-2.80;99.90
21184;DHT22;18176;49.502;11.754;2023-02-04T21:32:17;-2.90;99.90
21184;DHT22;18176;49.502;11.754;2023-02-04T21:36:22;-3.00;99.90
21184;DHT22;18176;49.502;11.754;2023-02-04T21:40:24;-3.00;99.90
21184;DHT22;18176;49.502;11.754;2023-02-04T21:44:28;-3.10;99.90
21184;DHT22;18176;49.502;11.754;2023-02-04T21:48:33;-3.10;99.90
21184;DHT22;18176;49.502;11.754;2023-02-04T21:52:39;-3.20;99.90
21184;DHT22;18176;49.502;11.754;2023-02-04T21:56:41;-3.20;99.90
21184;DHT22;18176;49.502;11.754;2023-02-04T22:00:49;-3.30;99.90
21184;DHT22;18176;49.502;11.754;2023-02-04T22:04:50;-3.40;99.90
21184;DHT22;18176;49.502;11.754;2023-02-04T22:08:52;-3.40;99.90
21184;DHT22;18176;49.502;11.754;2023-02-04T22:12:53;-3.50;99.90
21184;DHT22;18176;49.502;11.754;2023-02-04T22:16:56;-3.50;99.90
21184;DHT22;18176;49.502;11.754;2023-02-04T22:20:57;-3.60;99.90
21184;DHT22;18176;49.502;11.754;2023-02-04T22:24:58;-3.60;99.90
21184;DHT22;18176;49.502;11.754;2023-02-04T22:28:58;-3.70;99.90
21184;DHT22;18176;49.502;11.754;2023-02-04T22:33:02;-3.70;99.90
21184;DHT22;18176;49.502;11.754;2023-02-04T22:37:04;-3.70;99.90
21184;DHT22;18176;49.502;11.754;2023-02-04T22:41:04;-3.60;99.90
21184;DHT22;18176;49.502;11.754;2023-02-04T22:45:06;-3.70;99.90
21184;DHT22;18176;49.502;11.754;2023-02-04T22:49:12;-3.70;99.90
21184;DHT22;18176;49.502;11.754;2023-02-04T22:53:15;-3.80;99.90
21184;DHT22;18176;49.502;11.754;2023-02-04T22:57:16;-3.80;99.90
21184;DHT22;18176;49.502;11.754;2023-02-04T23:01:17;-3.70;99.90
21184;DHT22;18176;49.502;11.754;2023-02-04T23:05:20;-3.80;99.90
21184;DHT22;18176;49.502;11.754;2023-02-04T23:09:21;-3.80;99.90
21184;DHT22;18176;49.502;11.754;2023-02-04T23:13:22;-3.80;99.90
21184;DHT22;18176;49.502;11.754;2023-02-04T23:17:22;-3.80;99.90
21184;DHT22;18176;49.502;11.754;2023-02-04T23:21:26;-3.70;99.90
21184;DHT22;18176;49.502;11.754;2023-02-04T23:25:26;-3.70;99.90
21184;DHT22;18176;49.502;11.754;2023-02-04T23:29:30;-3.70;99.90
21184;DHT22;18176;49.502;11.754;2023-02-04T23:33:32;-3.70;99.90
21184;DHT22;18176;49.502;11.754;2023-02-04T23:37:35;-3.80;99.90
21184;DHT22;18176;49.502;11.754;2023-02-04T23:41:36;-3.90;99.90
21184;DHT22;18176;49.502;11.754;2023-02-04T23:45:36;-3.90;99.90
21184;DHT22;18176;49.502;11.754;2023-02-04T23:49:39;-4.00;99.90
21184;DHT22;18176;49.502;11.754;2023-02-04T23:53:43;-4.10;99.90
21184;DHT22;18176;49.502;11.754;2023-02-04T23:57:44;-4.20;99.90
